Time;durP1;ratioP1;P1;durP2;ratioP2;P2;SDS_P1;SDS_P2;PMS_P1;PMS_P2;Temp;Humidity;BMP_temperature;BMP_pressure;BME280_temperature;BME280_humidity;BME280_pressure;Samples;Min_cycle;Max_cycle;Signal;HPM_P1;HPM_P2
2023/10/28 00:02:14;;;;;;;;;;;;;;;16.37;nan;99748.69;4968341;28;20094;-88
2023/10/28 00:04:40;;;;;;;;;;;;;;;16.35;nan;99750.91;4972805;28;19972;-87
2023/10/28 00:07:16;;;;;;;;;;;;;;;16.34;nan;99744.69;4969701;28;20016;-88
2023/10/28 00:09:45;;;;;;;;;;;;;;;16.36;nan;99739.78;4974091;28;19925;-88
2023/10/28 00:12:15;;;;;;;;;;;;;;;16.36;nan;99744.38;4967313;28;19922;-88
2023/10/28 00:14:42;;;;;;;;;;;;;;;16.35;nan;99750.91;4968927;28;19918;-88
2023/10/28 00:17:09;;;;;;;;;;;;;;;16.33;nan;99746.56;4967773;28;19918;-88
2023/10/28 00:19:57;;;;;;;;;;;;;;;16.33;nan;99753.88;4971805;28;19968;-87
2023/10/28 00:22:25;;;;;;;;;;;;;;;16.30;nan;99752.59;4970007;28;19933;-88
2023/10/28 00:25:13;;;;;;;;;;;;;;;16.32;nan;99752.28;4969348;28;19926;-87
2023/10/28 00:27:43;;;;;;;;;;;;;;;16.30;nan;99749.91;4964473;28;20062;-87
2023/10/28 00:30:16;;;;;;;;;;;;;;;16.29;nan;99750.22;4968367;28;20088;-88
2023/10/28 00:32:44;;;;;;;;;;;;;;;16.29;nan;99751.00;4972100;28;19925;-88
2023/10/28 00:35:16;;;;;;;;;;;;;;;16.30;nan;99755.31;4971256;28;20420;-87
2023/10/28 00:37:44;;;;;;;;;;;;;;;16.29;nan;99752.91;4971228;28;19918;-87
2023/10/28 00:40:30;;;;;;;;;;;;;;;16.27;nan;99753.22;4967517;28;19922;-88
2023/10/28 00:42:59;;;;;;;;;;;;;;;16.28;nan;99752.13;4969455;28;20398;-86
2023/10/28 00:45:27;;;;;;;;;;;;;;;16.26;nan;99756.25;4966708;28;20315;-87
2023/10/28 00:48:01;;;;;;;;;;;;;;;16.27;nan;99763.25;4970797;28;19938;-87
2023/10/28 00:50:30;;;;;;;;;;;;;;;16.27;nan;99761.34;4968096;28;20663;-87
2023/10/28 00:52:58;;;;;;;;;;;;;;;16.30;nan;99765.31;4966870;28;19926;-87
2023/10/28 00:55:29;;;;;;;;;;;;;;;16.29;nan;99766.44;4968485;28;20390;-87
2023/10/28 00:57:55;;;;;;;;;;;;;;;16.28;nan;99762.94;4969717;28;19926;-87
2023/10/28 01:00:21;;;;;;;;;;;;;;;16.28;nan;99762.13;4962731;28;20221;-87
2023/10/28 01:02:48;;;;;;;;;;;;;;;16.29;nan;99755.63;4967482;28;19936;-87
2023/10/28 01:05:15;;;;;;;;;;;;;;;16.27;nan;99763.25;4970725;28;20322;-88
2023/10/28 01:07:47;;;;;;;;;;;;;;;16.25;nan;99760.06;4970410;28;21454;-87
2023/10/28 01:10:28;;;;;;;;;;;;;;;16.23;nan;99760.38;4964515;28;20346;-88
2023/10/28 01:12:54;;;;;;;;;;;;;;;16.20;nan;99758.28;4972968;28;20390;-87
2023/10/28 01:15:20;;;;;;;;;;;;;;;16.17;nan;99752.72;4966301;28;19922;-87
2023/10/28 01:17:48;;;;;;;;;;;;;;;16.15;nan;99750.28;4969451;28;19922;-87
2023/10/28 01:20:13;;;;;;;;;;;;;;;16.15;nan;99754.91;4964534;28;19929;-87
2023/10/28 01:22:40;;;;;;;;;;;;;;;16.15;nan;99754.91;4967611;28;19930;-86
2023/10/28 01:25:06;;;;;;;;;;;;;;;16.15;nan;99754.91;4968200;28;19929;-87
2023/10/28 01:27:38;;;;;;;;;;;;;;;16.17;nan;99755.41;4968535;28;20298;-88
2023/10/28 01:30:05;;;;;;;;;;;;;;;16.15;nan;99757.59;4969042;28;19948;-87
2023/10/28 01:32:30;;;;;;;;;;;;;;;16.12;nan;99760.94;4967733;28;19922;-87
2023/10/28 01:34:59;;;;;;;;;;;;;;;16.11;nan;99762.03;4967191;28;20014;-88
2023/10/28 01:37:30;;;;;;;;;;;;;;;16.11;nan;99749.31;4966602;28;19918;-87
2023/10/28 01:39:57;;;;;;;;;;;;;;;16.13;nan;99752.50;4969296;28;19933;-88
2023/10/28 01:42:23;;;;;;;;;;;;;;;16.13;nan;99762.53;4966747;28;19922;-87
2023/10/28 01:45:01;;;;;;;;;;;;;;;16.13;nan;99759.81;4968338;28;19928;-87
2023/10/28 01:47:30;;;;;;;;;;;;;;;16.13;nan;99754.41;4966619;28;20009;-87
2023/10/28 01:49:58;;;;;;;;;;;;;;;16.12;nan;99752.81;4964273;28;19993;-87
2023/10/28 01:52:25;;;;;;;;;;;;;;;16.14;nan;99758.72;4965042;28;19926;-87
2023/10/28 01:54:55;;;;;;;;;;;;;;;16.14;nan;99754.09;4965446;28;19929;-87
2023/10/28 01:57:21;;;;;;;;;;;;;;;16.14;nan;99762.22;4972208;28;19918;-87
2023/10/28 01:59:49;;;;;;;;;;;;;;;16.15;nan;99757.59;4970472;28;20231;-88
2023/10/28 02:02:36;;;;;;;;;;;;;;;16.15;nan;99757.59;4969823;28;20009;-87
2023/10/28 02:05:09;;;;;;;;;;;;;;;16.14;nan;99775.72;4973393;28;19945;-87
2023/10/28 02:07:40;;;;;;;;;;;;;;;16.12;nan;99760.94;4970317;28;20737;-87
2023/10/28 02:10:10;;;;;;;;;;;;;;;16.11;nan;99770.94;4971576;28;20259;-87
2023/10/28 02:12:39;;;;;;;;;;;;;;;16.11;nan;99759.34;4974043;28;19918;-87
2023/10/28 02:15:08;;;;;;;;;;;;;;;16.09;nan;99765.03;4973765;28;19929;-87
2023/10/28 02:17:38;;;;;;;;;;;;;;;16.10;nan;99757.75;4970383;28;19933;-88
2023/10/28 02:20:06;;;;;;;;;;;;;;;16.11;nan;99756.63;4972845;28;19926;-88
2023/10/28 02:22:32;;;;;;;;;;;;;;;16.13;nan;99757.13;4968734;28;20367;-88
2023/10/28 02:24:58;;;;;;;;;;;;;;;16.14;nan;99747.91;4971443;28;19926;-88
2023/10/28 02:27:26;;;;;;;;;;;;;;;16.18;nan;99759.72;4973444;28;19980;-88
2023/10/28 02:29:55;;;;;;;;;;;;;;;16.17;nan;99763.53;4971900;28;20413;-88
2023/10/28 02:32:23;;;;;;;;;;;;;;;16.18;nan;99765.13;4968534;28;19971;-88
2023/10/28 02:34:51;;;;;;;;;;;;;;;16.19;nan;99764.81;4974844;28;19969;-87
2023/10/28 02:37:20;;;;;;;;;;;;;;;16.20;nan;99765.59;4971509;28;19977;-87
2023/10/28 02:39:47;;;;;;;;;;;;;;;16.20;nan;99771.00;4970555;28;19917;-88
2023/10/28 02:42:13;;;;;;;;;;;;;;;16.21;nan;99772.59;4972878;28;21505;-88
2023/10/28 02:44:39;;;;;;;;;;;;;;;16.21;nan;99769.91;4972126;28;19921;-87
2023/10/28 02:47:05;;;;;;;;;;;;;;;16.21;nan;99775.31;4975130;28;19918;-88
2023/10/28 02:49:31;;;;;;;;;;;;;;;16.21;nan;99776.09;4977843;28;19921;-87
2023/10/28 02:51:58;;;;;;;;;;;;;;;16.21;nan;99772.59;4973815;28;19922;-87
2023/10/28 02:54:28;;;;;;;;;;;;;;;16.21;nan;99770.69;4975486;28;19924;-88
2023/10/28 02:56:58;;;;;;;;;;;;;;;16.20;nan;99774.50;4969375;28;19936;-88
2023/10/28 02:59:27;;;;;;;;;;;;;;;16.20;nan;99773.72;4970769;28;19973;-88
2023/10/28 03:01:54;;;;;;;;;;;;;;;16.18;nan;99789.44;4973715;28;19926;-88
2023/10/28 03:04:22;;;;;;;;;;;;;;;16.18;nan;99781.34;4974062;28;20398;-88
2023/10/28 03:06:51;;;;;;;;;;;;;;;16.19;nan;99783.72;4973301;28;19926;-87
2023/10/28 03:09:19;;;;;;;;;;;;;;;16.21;nan;99786.13;4974116;28;19918;-88
2023/10/28 03:11:45;;;;;;;;;;;;;;;16.21;nan;99783.41;4959964;28;20361;-88
2023/10/28 03:14:13;;;;;;;;;;;;;;;16.21;nan;99784.22;4969374;28;20285;-88
2023/10/28 03:16:51;;;;;;;;;;;;;;;16.22;nan;99785.81;4964407;28;19926;-87
2023/10/28 03:19:19;;;;;;;;;;;;;;;16.21;nan;99786.13;4969246;28;19922;-86
2023/10/28 03:21:45;;;;;;;;;;;;;;;16.21;nan;99792.31;4970749;28;20024;-88
2023/10/28 03:24:12;;;;;;;;;;;;;;;16.21;nan;99773.41;4971106;28;20034;-88
2023/10/28 03:26:40;;;;;;;;;;;;;;;16.22;nan;99776.91;4968618;28;20514;-88
2023/10/28 03:29:11;;;;;;;;;;;;;;;16.21;nan;99783.41;4967517;28;19926;-88
2023/10/28 03:31:40;;;;;;;;;;;;;;;16.20;nan;99784.53;4975772;28;20280;-88
2023/10/28 03:34:07;;;;;;;;;;;;;;;16.21;nan;99788.81;4970719;28;20324;-88
2023/10/28 03:36:35;;;;;;;;;;;;;;;16.21;nan;99786.13;4973981;28;19936;-89
2023/10/28 03:39:01;;;;;;;;;;;;;;;16.21;nan;99786.13;4974683;28;20418;-88
2023/10/28 03:41:29;;;;;;;;;;;;;;;16.21;nan;99796.94;4972008;28;19985;-87
2023/10/28 03:44:01;;;;;;;;;;;;;;;16.20;nan;99801.53;4970448;28;20083;-88
2023/10/28 03:46:30;;;;;;;;;;;;;;;16.18;nan;99801.03;4971202;28;19969;-88
2023/10/28 03:49:07;;;;;;;;;;;;;;;16.17;nan;99802.16;4969926;28;19948;-88
2023/10/28 03:51:36;;;;;;;;;;;;;;;16.15;nan;99798.13;4969751;28;19918;-88
2023/10/28 03:54:14;;;;;;;;;;;;;;;16.13;nan;99790.34;4973041;28;19922;-88
2023/10/28 03:56:42;;;;;;;;;;;;;;;16.14;nan;99804.66;4969204;28;19981;-88
2023/10/28 03:59:14;;;;;;;;;;;;;;;16.12;nan;99809.56;4973523;28;19917;-88
2023/10/28 04:02:00;;;;;;;;;;;;;;;16.07;nan;99812.41;4970722;28;19926;-88
2023/10/28 04:04:28;;;;;;;;;;;;;;;16.06;nan;99814.31;4970357;28;19922;-88
2023/10/28 04:06:55;;;;;;;;;;;;;;;16.09;nan;99812.88;4970815;28;20040;-88
2023/10/28 04:09:22;;;;;;;;;;;;;;;16.08;nan;99819.41;4973622;28;19945;-88
2023/10/28 04:11:49;;;;;;;;;;;;;;;16.07;nan;99820.50;4973743;28;19922;-88
2023/10/28 04:14:19;;;;;;;;;;;;;;;16.07;nan;99823.22;4972782;28;20346;-88
2023/10/28 04:16:51;;;;;;;;;;;;;;;16.06;nan;99827.81;4973589;28;19925;-89
2023/10/28 04:19:21;;;;;;;;;;;;;;;16.04;nan;99826.53;4974568;28;20394;-88
2023/10/28 04:21:46;;;;;;;;;;;;;;;16.01;nan;99825.25;4969476;28;20016;-88
2023/10/28 04:24:13;;;;;;;;;;;;;;;16.02;nan;99827.63;4975710;28;19929;-88
2023/10/28 04:26:43;;;;;;;;;;;;;;;16.04;nan;99818.41;4969346;28;20473;-88
2023/10/28 04:29:10;;;;;;;;;;;;;;;16.01;nan;99815.22;4973436;28;20105;-88
2023/10/28 04:31:36;;;;;;;;;;;;;;;16.01;nan;99817.94;4968984;28;19917;-88
2023/10/28 04:34:06;;;;;;;;;;;;;;;15.99;nan;99827.44;4964699;28;19921;-88
2023/10/28 04:36:33;;;;;;;;;;;;;;;15.98;nan;99826.66;4972356;28;19932;-88
2023/10/28 04:38:58;;;;;;;;;;;;;;;15.99;nan;99814.75;4971605;28;19929;-88
2023/10/28 04:41:25;;;;;;;;;;;;;;;16.01;nan;99826.03;4972952;28;19922;-88
2023/10/28 04:43:53;;;;;;;;;;;;;;;16.06;nan;99827.00;4976320;28;20387;-88
2023/10/28 04:46:20;;;;;;;;;;;;;;;16.06;nan;99819.72;4971995;28;20040;-87
2023/10/28 04:48:49;;;;;;;;;;;;;;;16.06;nan;99827.00;4967641;28;19930;-88
2023/10/28 04:51:17;;;;;;;;;;;;;;;16.05;nan;99825.41;4972639;28;19918;-87
2023/10/28 04:53:45;;;;;;;;;;;;;;;16.02;nan;99826.84;4975464;28;19922;-88
2023/10/28 04:56:34;;;;;;;;;;;;;;;15.99;nan;99825.56;4974404;28;20361;-88
2023/10/28 04:59:00;;;;;;;;;;;;;;;15.96;nan;99828.84;4969951;28;19918;-88
2023/10/28 05:01:26;;;;;;;;;;;;;;;15.97;nan;99835.84;4969543;28;19972;-88
2023/10/28 05:03:53;;;;;;;;;;;;;;;15.98;nan;99840.16;4973095;28;20382;-88
2023/10/28 05:06:22;;;;;;;;;;;;;;;15.96;nan;99839.66;4970826;28;19925;-87
2023/10/28 05:08:49;;;;;;;;;;;;;;;15.95;nan;99853.47;4973883;28;19928;-88
2023/10/28 05:11:17;;;;;;;;;;;;;;;15.95;nan;99843.44;4971502;28;19926;-88
2023/10/28 05:13:49;;;;;;;;;;;;;;;15.98;nan;99858.28;4968353;28;19929;-88
2023/10/28 05:16:14;;;;;;;;;;;;;;;15.99;nan;99859.88;4968529;28;19980;-89
2023/10/28 05:18:41;;;;;;;;;;;;;;;15.98;nan;99852.88;4969829;28;19934;-88
2023/10/28 05:21:08;;;;;;;;;;;;;;;15.97;nan;99862.06;4974149;28;20015;-87
2023/10/28 05:23:34;;;;;;;;;;;;;;;16.00;nan;99864.16;4968446;28;19926;-89
2023/10/28 05:26:00;;;;;;;;;;;;;;;16.01;nan;99871.16;4969381;28;19934;-87
2023/10/28 05:28:28;;;;;;;;;;;;;;;16.00;nan;99864.97;4970851;28;19919;-88
2023/10/28 05:31:03;;;;;;;;;;;;;;;15.98;nan;99878.00;4974761;28;19918;-88
2023/10/28 05:33:31;;;;;;;;;;;;;;;15.95;nan;99865.06;4972114;28;19924;-88
2023/10/28 05:35:59;;;;;;;;;;;;;;;15.93;nan;99871.88;4968934;28;19929;-88
2023/10/28 05:38:27;;;;;;;;;;;;;;;15.91;nan;99874.09;4970027;28;20021;-87
2023/10/28 05:41:00;;;;;;;;;;;;;;;15.91;nan;99864.09;4973897;28;20090;-88
2023/10/28 05:43:26;;;;;;;;;;;;;;;15.91;nan;99872.19;4977505;28;19936;-87
2023/10/28 05:45:56;;;;;;;;;;;;;;;15.91;nan;99874.09;4978484;28;19926;-88
2023/10/28 05:48:29;;;;;;;;;;;;;;;15.90;nan;99870.59;4979473;28;19925;-88
2023/10/28 05:50:58;;;;;;;;;;;;;;;15.90;nan;99873.28;4976621;28;19925;-88
2023/10/28 05:53:29;;;;;;;;;;;;;;;15.88;nan;99889.00;4977588;28;19930;-87
2023/10/28 05:56:14;;;;;;;;;;;;;;;15.89;nan;99887.91;4977249;28;19926;-87
2023/10/28 05:58:44;;;;;;;;;;;;;;;15.87;nan;99883.91;4978053;28;19929;-88
2023/10/28 06:01:13;;;;;;;;;;;;;;;15.86;nan;99888.50;4976145;28;20452;-88
2023/10/28 06:03:39;;;;;;;;;;;;;;;15.86;nan;99883.13;4975711;28;19930;-89
2023/10/28 06:06:07;;;;;;;;;;;;;;;15.89;nan;99897.91;4971723;28;19926;-88
2023/10/28 06:08:36;;;;;;;;;;;;;;;15.90;nan;99903.00;4974740;28;19918;-88
2023/10/28 06:11:04;;;;;;;;;;;;;;;15.87;nan;99900.91;4976192;28;19989;-88
2023/10/28 06:13:33;;;;;;;;;;;;;;;15.86;nan;99898.53;4971656;28;20434;-88
2023/10/28 06:16:08;;;;;;;;;;;;;;;15.84;nan;99900.72;4976432;28;19917;-88
2023/10/28 06:18:35;;;;;;;;;;;;;;;15.87;nan;99911.72;4972280;28;19933;-88
2023/10/28 06:21:04;;;;;;;;;;;;;;;15.90;nan;99921.91;4975541;28;19924;-87
2023/10/28 06:23:30;;;;;;;;;;;;;;;15.91;nan;99917.31;4973152;28;19922;-88
2023/10/28 06:26:07;;;;;;;;;;;;;;;15.93;nan;99923.22;4974704;28;19932;-87
2023/10/28 06:28:34;;;;;;;;;;;;;;;15.91;nan;99923.50;4971757;28;19918;-88
2023/10/28 06:31:00;;;;;;;;;;;;;;;15.88;nan;99921.44;4974544;28;19926;-87
2023/10/28 06:33:28;;;;;;;;;;;;;;;15.89;nan;99931.13;4973812;28;19917;-88
2023/10/28 06:35:54;;;;;;;;;;;;;;;15.93;nan;99939.41;4974291;28;19981;-87
2023/10/28 06:38:25;;;;;;;;;;;;;;;15.97;nan;99943.91;4975861;28;19945;-88
2023/10/28 06:40:54;;;;;;;;;;;;;;;15.99;nan;99949.84;4974812;28;20013;-90
2023/10/28 06:43:24;;;;;;;;;;;;;;;16.01;nan;99955.72;4971510;28;19958;-88
2023/10/28 06:45:50;;;;;;;;;;;;;;;16.01;nan;99963.03;4975355;28;19957;-88
2023/10/28 06:48:18;;;;;;;;;;;;;;;16.01;nan;99966.53;4978933;28;19918;-88
2023/10/28 06:50:45;;;;;;;;;;;;;;;16.01;nan;99965.72;4974375;28;19926;-88
2023/10/28 06:53:10;;;;;;;;;;;;;;;16.02;nan;99967.34;4971750;28;20101;-87
2023/10/28 06:55:37;;;;;;;;;;;;;;;16.01;nan;99961.13;4969880;28;19922;-89
2023/10/28 06:58:24;;;;;;;;;;;;;;;16.04;nan;99967.03;4976902;28;19917;-88
2023/10/28 07:01:02;;;;;;;;;;;;;;;16.06;nan;99970.22;4974067;28;20307;-88
2023/10/28 07:03:32;;;;;;;;;;;;;;;16.06;nan;99970.22;4972895;28;20301;-89
2023/10/28 07:06:00;;;;;;;;;;;;;;;16.07;nan;99975.31;4973892;28;20055;-89
2023/10/28 07:08:30;;;;;;;;;;;;;;;16.06;nan;99979.13;4972233;28;19926;-88
2023/10/28 07:11:02;;;;;;;;;;;;;;;16.07;nan;99980.72;4976269;28;20398;-87
2023/10/28 07:13:29;;;;;;;;;;;;;;;16.07;nan;99975.31;4976809;28;19922;-88
2023/10/28 07:16:03;;;;;;;;;;;;;;;16.06;nan;99972.94;4976849;28;19930;-89
2023/10/28 07:18:29;;;;;;;;;;;;;;;16.05;nan;99972.13;4974229;28;19945;-89
2023/10/28 07:20:56;;;;;;;;;;;;;;;16.07;nan;99978.03;4973186;28;20388;-89
2023/10/28 07:23:26;;;;;;;;;;;;;;;16.04;nan;99978.63;4974599;28;19917;-87
2023/10/28 07:25:53;;;;;;;;;;;;;;;16.05;nan;99977.53;4974509;28;19926;-89
2023/10/28 07:28:20;;;;;;;;;;;;;;;16.04;nan;99981.34;4975052;28;20429;-88
2023/10/28 07:30:50;;;;;;;;;;;;;;;16.09;nan;99985.81;4976817;28;19937;-89
2023/10/28 07:33:21;;;;;;;;;;;;;;;16.11;nan;99989.03;4975783;28;20374;-89
2023/10/28 07:35:51;;;;;;;;;;;;;;;16.14;nan;99991.13;4961627;28;20530;-89
2023/10/28 07:38:19;;;;;;;;;;;;;;;16.17;nan;99995.94;4979873;28;19929;-89
2023/10/28 07:40:45;;;;;;;;;;;;;;;16.22;nan;99993.91;4975603;28;19949;-89
2023/10/28 07:43:12;;;;;;;;;;;;;;;16.25;nan;99997.91;4978374;28;19929;-89
2023/10/28 07:45:58;;;;;;;;;;;;;;;16.26;nan;100002.22;4976700;28;19922;-88
2023/10/28 07:48:26;;;;;;;;;;;;;;;16.27;nan;100001.09;4976173;28;19926;-88
2023/10/28 07:50:59;;;;;;;;;;;;;;;16.28;nan;100006.22;4976995;28;20181;-88
2023/10/28 07:53:28;;;;;;;;;;;;;;;16.31;nan;100008.28;4972799;28;19921;-89
2023/10/28 07:56:01;;;;;;;;;;;;;;;16.36;nan;100009.31;4975926;28;19918;-89
2023/10/28 07:58:29;;;;;;;;;;;;;;;16.40;nan;100021.13;4987313;28;20393;-89
2023/10/28 08:00:55;;;;;;;;;;;;;;;16.44;nan;100031.00;4976235;28;19918;-89
2023/10/28 08:03:21;;;;;;;;;;;;;;;16.50;nan;100026.28;4976110;28;19937;-89
2023/10/28 08:05:48;;;;;;;;;;;;;;;16.55;nan;100035.09;4972291;28;19933;-89
2023/10/28 08:08:19;;;;;;;;;;;;;;;16.61;nan;100038.47;4979710;28;20345;-91
2023/10/28 08:10:47;;;;;;;;;;;;;;;16.65;nan;100042.16;4976669;28;19921;-88
2023/10/28 08:13:22;;;;;;;;;;;;;;;16.65;nan;100049.47;4972011;28;19930;-91
2023/10/28 08:15:52;;;;;;;;;;;;;;;16.65;nan;100044.06;4975822;28;19929;-88
2023/10/28 08:18:18;;;;;;;;;;;;;;;16.61;nan;100041.19;4976085;28;19922;-88
2023/10/28 08:21:05;;;;;;;;;;;;;;;16.60;nan;100043.09;4972914;28;19997;-94
2023/10/28 08:23:32;;;;;;;;;;;;;;;16.62;nan;100046.28;4976545;28;19932;-86
2023/10/28 08:26:06;;;;;;;;;;;;;;;16.61;nan;100058.22;4975215;28;19930;-89
2023/10/28 08:28:32;;;;;;;;;;;;;;;16.61;nan;100055.50;4972387;28;19922;-88
2023/10/28 08:31:21;;;;;;;;;;;;;;;16.61;nan;100060.91;4974118;28;20302;-91
2023/10/28 08:33:52;;;;;;;;;;;;;;;16.62;nan;100065.22;4970188;28;20467;-86
2023/10/28 08:36:25;;;;;;;;;;;;;;;16.60;nan;100070.13;4972728;28;19981;-89
2023/10/28 08:38:57;;;;;;;;;;;;;;;16.60;nan;100066.63;4972918;28;20020;-90
2023/10/28 08:41:24;;;;;;;;;;;;;;;16.61;nan;100066.31;4975906;28;19952;-87
2023/10/28 08:43:51;;;;;;;;;;;;;;;16.62;nan;100069.81;4969416;28;20396;-85
2023/10/28 08:46:18;;;;;;;;;;;;;;;16.65;nan;100066.50;4973068;28;20406;-91
2023/10/28 08:48:44;;;;;;;;;;;;;;;16.70;nan;100071.84;4968773;28;19922;-87
2023/10/28 08:51:15;;;;;;;;;;;;;;;16.74;nan;100070.13;4969954;28;19918;-91
2023/10/28 08:53:44;;;;;;;;;;;;;;;16.79;nan;100072.72;4969846;28;19921;-88
2023/10/28 08:56:26;;;;;;;;;;;;;;;16.83;nan;100089.13;4971291;28;19929;-92
2023/10/28 08:58:55;;;;;;;;;;;;;;;16.85;nan;100087.72;4973837;28;19937;-93
2023/10/28 09:01:24;;;;;;;;;;;;;;;16.88;nan;100087.13;4977663;28;19918;-95
2023/10/28 09:04:06;;;;;;;;;;;;;;;16.87;nan;100095.53;4977067;28;20306;-92
2023/10/28 09:06:35;;;;;;;;;;;;;;;16.91;nan;100096.53;4973600;28;19918;-89
2023/10/28 09:09:25;;;;;;;;;;;;;;;16.97;nan;100095.31;4970425;28;20028;-87
2023/10/28 09:11:57;;;;;;;;;;;;;;;16.96;nan;100098.31;4975872;28;19968;-93
2023/10/28 09:14:30;;;;;;;;;;;;;;;16.97;nan;100089.88;4976241;28;19992;-89
2023/10/28 09:17:03;;;;;;;;;;;;;;;17.00;nan;100089.28;4970429;28;19926;-94
2023/10/28 09:19:42;;;;;;;;;;;;;;;17.04;nan;100092.94;4972276;28;19933;-87
2023/10/28 09:22:10;;;;;;;;;;;;;;;17.14;nan;100094.63;4977954;28;20131;-92
2023/10/28 09:24:47;;;;;;;;;;;;;;;17.23;nan;100090.06;4972634;28;19989;-94
2023/10/28 09:27:16;;;;;;;;;;;;;;;17.35;nan;100094.94;4972246;28;20377;-84
2023/10/28 09:29:45;;;;;;;;;;;;;;;17.44;nan;100101.22;4970645;28;19945;-91
2023/10/28 09:32:11;;;;;;;;;;;;;;;17.47;nan;100106.00;4977168;28;20004;-88
2023/10/28 09:34:44;;;;;;;;;;;;;;;17.52;nan;100109.38;4970761;28;20016;-89
2023/10/28 09:37:15;;;;;;;;;;;;;;;17.60;nan;100105.16;4975440;28;19921;-91
2023/10/28 09:39:47;;;;;;;;;;;;;;;17.62;nan;100105.63;4968876;28;19929;-90
2023/10/28 09:42:16;;;;;;;;;;;;;;;17.64;nan;100113.44;4973806;28;19922;-89
2023/10/28 09:44:45;;;;;;;;;;;;;;;17.63;nan;100119.97;4971443;28;20043;-91
2023/10/28 09:47:16;;;;;;;;;;;;;;;17.59;nan;100125.19;4968393;28;19937;-89
2023/10/28 09:49:46;;;;;;;;;;;;;;;17.54;nan;100130.75;4969910;28;19941;-84
2023/10/28 09:52:13;;;;;;;;;;;;;;;17.46;nan;100128.78;4966777;28;19945;-85
2023/10/28 09:54:41;;;;;;;;;;;;;;;17.45;nan;100128.00;4964810;28;19919;-83
2023/10/28 09:57:10;;;;;;;;;;;;;;;17.43;nan;100122.09;4969707;28;19929;-82
2023/10/28 09:59:38;;;;;;;;;;;;;;;17.42;nan;100134.03;4967601;28;20489;-82
2023/10/28 10:02:17;;;;;;;;;;;;;;;17.44;nan;100137.22;4967589;28;19958;-82
2023/10/28 10:04:59;;;;;;;;;;;;;;;17.45;nan;100138.81;4971634;28;19926;-82
2023/10/28 10:07:26;;;;;;;;;;;;;;;17.43;nan;100145.66;4965473;28;19930;-82
2023/10/28 10:10:13;;;;;;;;;;;;;;;17.38;nan;100138.44;4965802;28;19926;-82
2023/10/28 10:12:41;;;;;;;;;;;;;;;17.40;nan;100138.13;4967840;28;19925;-82
2023/10/28 10:15:09;;;;;;;;;;;;;;;17.44;nan;100144.56;4963137;28;20047;-82
2023/10/28 10:17:48;;;;;;;;;;;;;;;17.49;nan;100149.84;4964484;28;20077;-82
2023/10/28 10:20:23;;;;;;;;;;;;;;;17.53;nan;100151.59;4968986;28;19929;-82
2023/10/28 10:22:55;;;;;;;;;;;;;;;17.57;nan;100140.94;4971735;28;19977;-82
2023/10/28 10:25:39;;;;;;;;;;;;;;;17.60;nan;100140.34;4971907;28;19928;-82
2023/10/28 10:28:23;;;;;;;;;;;;;;;17.62;nan;100135.44;4971241;28;20000;-82
2023/10/28 10:30:49;;;;;;;;;;;;;;;17.66;nan;100136.41;4972909;28;20009;-82
2023/10/28 10:33:27;;;;;;;;;;;;;;;17.74;nan;100143.00;4974618;28;20040;-82
2023/10/28 10:35:54;;;;;;;;;;;;;;;17.76;nan;100144.28;4969051;28;20004;-82
2023/10/28 10:38:29;;;;;;;;;;;;;;;17.76;nan;100146.19;4971832;28;20028;-83
2023/10/28 10:41:00;;;;;;;;;;;;;;;17.74;nan;100141.09;4980131;28;19921;-82
2023/10/28 10:43:31;;;;;;;;;;;;;;;17.78;nan;100149.41;4972921;28;20326;-82
2023/10/28 10:45:58;;;;;;;;;;;;;;;17.80;nan;100149.91;4973516;28;19922;-83
2023/10/28 10:48:36;;;;;;;;;;;;;;;17.83;nan;100148.47;4977283;28;20083;-85
2023/10/28 10:51:17;;;;;;;;;;;;;;;17.85;nan;100157.91;4975718;28;19926;-83
2023/10/28 10:53:46;;;;;;;;;;;;;;;17.88;nan;100145.63;4972141;28;19933;-85
2023/10/28 10:56:20;;;;;;;;;;;;;;;17.89;nan;100148.03;4970811;28;20323;-86
2023/10/28 10:58:46;;;;;;;;;;;;;;;17.88;nan;100151.84;4970545;28;21147;-83
2023/10/28 11:01:15;;;;;;;;;;;;;;;17.90;nan;100146.91;4976669;28;20112;-83
2023/10/28 11:03:51;;;;;;;;;;;;;;;17.91;nan;100150.44;4973355;28;19922;-86
2023/10/28 11:06:23;;;;;;;;;;;;;;;17.93;nan;100150.91;4971167;28;20041;-84
2023/10/28 11:08:52;;;;;;;;;;;;;;;17.95;nan;100154.09;4971298;28;19926;-82
2023/10/28 11:11:29;;;;;;;;;;;;;;;17.98;nan;100148.09;4972027;28;19938;-84
2023/10/28 11:14:07;;;;;;;;;;;;;;;17.99;nan;100149.69;4971367;28;19957;-88
2023/10/28 11:16:39;;;;;;;;;;;;;;;17.97;nan;100160.03;4971032;28;19926;-87
2023/10/28 11:19:13;;;;;;;;;;;;;;;17.95;nan;100167.66;4972482;28;20309;-89
2023/10/28 11:21:48;;;;;;;;;;;;;;;17.93;nan;100159.03;4974901;28;19946;-88
2023/10/28 11:24:17;;;;;;;;;;;;;;;17.90;nan;100175.94;4967945;28;20004;-86
2023/10/28 11:26:46;;;;;;;;;;;;;;;17.88;nan;100167.31;4964416;28;19991;-86
2023/10/28 11:29:14;;;;;;;;;;;;;;;17.91;nan;100161.25;4957765;28;20012;-87
2023/10/28 11:31:50;;;;;;;;;;;;;;;17.93;nan;100167.16;4968680;28;20286;-87
2023/10/28 11:34:17;;;;;;;;;;;;;;;17.95;nan;100152.19;4965281;28;19953;-87
2023/10/28 11:36:43;;;;;;;;;;;;;;;18.00;nan;100156.69;4969549;28;19933;-87
2023/10/28 11:39:14;;;;;;;;;;;;;;;18.09;nan;100157.53;4972178;28;19925;-87
2023/10/28 11:41:52;;;;;;;;;;;;;;;18.14;nan;100165.53;4973353;28;19944;-86
2023/10/28 11:44:27;;;;;;;;;;;;;;;18.16;nan;100166.03;4970153;28;19922;-86
2023/10/28 11:47:07;;;;;;;;;;;;;;;18.18;nan;100171.13;4967925;28;19930;-86
2023/10/28 11:49:35;;;;;;;;;;;;;;;18.19;nan;100168.09;4973524;28;19929;-83
2023/10/28 11:52:11;;;;;;;;;;;;;;;18.22;nan;100172.09;4972350;28;19985;-91
2023/10/28 11:54:42;;;;;;;;;;;;;;;18.21;nan;100171.31;4973270;28;19997;-86
2023/10/28 11:57:12;;;;;;;;;;;;;;;18.20;nan;100164.28;4973243;28;19918;-88
2023/10/28 11:59:42;;;;;;;;;;;;;;;18.22;nan;100172.91;4974458;28;20727;-86
2023/10/28 12:02:08;;;;;;;;;;;;;;;18.26;nan;100178.50;4969837;28;19928;-84
2023/10/28 12:04:46;;;;;;;;;;;;;;;18.28;nan;100176.25;4972151;28;19944;-85
2023/10/28 12:07:12;;;;;;;;;;;;;;;18.29;nan;100181.38;4975024;28;20664;-84
2023/10/28 12:09:50;;;;;;;;;;;;;;;18.29;nan;100175.94;4971117;28;20566;-87
2023/10/28 12:12:17;;;;;;;;;;;;;;;18.28;nan;100178.97;4969719;28;20001;-85
2023/10/28 12:14:44;;;;;;;;;;;;;;;18.27;nan;100177.38;4968975;28;19926;-83
2023/10/28 12:17:11;;;;;;;;;;;;;;;18.26;nan;100184.72;4966375;28;19921;-84
2023/10/28 12:19:39;;;;;;;;;;;;;;;18.28;nan;100181.69;4967288;28;19953;-85
2023/10/28 12:22:06;;;;;;;;;;;;;;;18.29;nan;100183.28;4972786;28;19925;-84
2023/10/28 12:24:34;;;;;;;;;;;;;;;18.28;nan;100187.91;4973401;28;20968;-88
2023/10/28 12:27:00;;;;;;;;;;;;;;;18.27;nan;100190.94;4971589;28;19972;-87
2023/10/28 12:29:35;;;;;;;;;;;;;;;18.27;nan;100194.44;4975452;28;19949;-88
2023/10/28 12:32:01;;;;;;;;;;;;;;;18.26;nan;100192.06;4974621;28;19929;-87
2023/10/28 12:34:29;;;;;;;;;;;;;;;18.25;nan;100188.53;4973403;28;20496;-87
2023/10/28 12:36:57;;;;;;;;;;;;;;;18.25;nan;100193.97;4969997;28;20555;-88
2023/10/28 12:39:26;;;;;;;;;;;;;;;18.24;nan;100197.78;4973296;28;20024;-88
2023/10/28 12:41:54;;;;;;;;;;;;;;;18.18;nan;100198.25;4975750;28;19922;-87
2023/10/28 12:44:22;;;;;;;;;;;;;;;18.15;nan;100199.69;4973357;28;19921;-88
2023/10/28 12:46:51;;;;;;;;;;;;;;;18.16;nan;100203.19;4971320;28;19997;-88
2023/10/28 12:49:37;;;;;;;;;;;;;;;18.18;nan;100209.91;4970593;28;19983;-88
2023/10/28 12:52:03;;;;;;;;;;;;;;;18.12;nan;100206.50;4971624;28;19918;-86
2023/10/28 12:54:34;;;;;;;;;;;;;;;18.07;nan;100211.25;4970204;28;20440;-89
2023/10/28 12:57:01;;;;;;;;;;;;;;;18.02;nan;100212.19;4977655;28;19961;-92
2023/10/28 12:59:30;;;;;;;;;;;;;;;18.01;nan;100210.59;4979459;28;19922;-91
2023/10/28 13:01:57;;;;;;;;;;;;;;;17.98;nan;100216.66;4975717;28;19922;-91
2023/10/28 13:04:25;;;;;;;;;;;;;;;17.97;nan;100215.03;4974819;28;19926;-91
2023/10/28 13:06:51;;;;;;;;;;;;;;;17.96;nan;100209.94;4977380;28;19926;-91
2023/10/28 13:09:18;;;;;;;;;;;;;;;17.93;nan;100215.94;4969666;28;20739;-90
2023/10/28 13:11:49;;;;;;;;;;;;;;;17.90;nan;100213.88;4975660;28;20517;-90
2023/10/28 13:14:18;;;;;;;;;;;;;;;17.89;nan;100218.50;4976015;28;20016;-91
2023/10/28 13:16:47;;;;;;;;;;;;;;;17.89;nan;100217.69;4970950;28;19926;-91
2023/10/28 13:19:13;;;;;;;;;;;;;;;17.90;nan;100222.00;4969998;28;19922;-87